createdAt,value
2022-08-05T00:01:36.018Z,26.89
2022-08-05T00:04:05.228Z,26.85
2022-08-05T00:06:35.901Z,26.80
2022-08-05T00:09:04.701Z,26.78
2022-08-05T00:11:49.057Z,26.76
2022-08-05T00:14:17.434Z,26.71
2022-08-05T00:16:52.110Z,26.68
2022-08-05T00:19:24.966Z,26.63
2022-08-05T00:22:00.212Z,26.58
2022-08-05T00:24:30.658Z,26.54
2022-08-05T00:26:59.491Z,26.50
2022-08-05T00:29:27.589Z,26.45
2022-08-05T00:32:12.790Z,26.41
2022-08-05T00:35:03.564Z,26.36
2022-08-05T00:37:35.770Z,26.29
2022-08-05T00:40:26.960Z,26.24
2022-08-05T00:43:00.562Z,26.21
2022-08-05T00:45:43.138Z,26.15
2022-08-05T00:48:12.811Z,26.11
2022-08-05T00:50:44.064Z,26.05
2022-08-05T00:54:00.253Z,26.01
2022-08-05T00:55:59.098Z,25.96
2022-08-05T00:58:27.419Z,25.91
2022-08-05T01:00:55.206Z,25.84
2022-08-05T01:03:23.488Z,25.80
2022-08-05T01:05:51.594Z,25.74
2022-08-05T01:08:40.292Z,25.66
2022-08-05T01:11:13.680Z,25.59
2022-08-05T01:13:59.775Z,25.55
2022-08-05T01:17:04.705Z,25.51
2022-08-05T01:20:00.829Z,25.42
2022-08-05T01:23:14.322Z,25.37
2022-08-05T01:26:06.838Z,25.32
2022-08-05T01:28:56.899Z,25.28
2022-08-05T01:31:53.811Z,25.22
2022-08-05T01:34:33.482Z,25.21
2022-08-05T01:37:24.546Z,25.19
2022-08-05T01:39:54.944Z,25.15
2022-08-05T01:42:28.100Z,25.11
2022-08-05T01:44:57.349Z,25.06
2022-08-05T01:47:38.773Z,25.00
2022-08-05T01:50:15.576Z,24.91
2022-08-05T01:52:44.489Z,24.85
2022-08-05T01:55:13.033Z,24.79
2022-08-05T01:58:18.779Z,24.70
2022-08-05T02:00:31.851Z,24.60
2022-08-05T02:03:03.903Z,24.54
2022-08-05T02:05:34.246Z,24.48
2022-08-05T02:08:03.478Z,24.40
2022-08-05T02:10:42.080Z,24.33
2022-08-05T02:13:17.794Z,24.22
2022-08-05T02:15:47.764Z,24.15
2022-08-05T02:18:31.653Z,24.10
2022-08-05T02:21:15.302Z,24.05
2022-08-05T02:23:44.783Z,23.98
2022-08-05T02:26:17.189Z,23.93
2022-08-05T02:28:46.253Z,23.86
2022-08-05T02:31:22.473Z,23.78
2022-08-05T02:33:57.409Z,23.70
2022-08-05T02:36:27.549Z,23.68
2022-08-05T02:38:55.896Z,23.65
2022-08-05T02:41:28.923Z,23.61
2022-08-05T02:44:11.958Z,23.57
2022-08-05T02:46:53.474Z,23.52
2022-08-05T02:49:26.446Z,23.45
2022-08-05T02:52:02.906Z,23.37
2022-08-05T02:54:34.857Z,23.33
2022-08-05T02:57:09.802Z,23.23
2022-08-05T02:59:54.544Z,23.18
2022-08-05T03:02:25.205Z,23.15
2022-08-05T03:04:55.515Z,23.11
2022-08-05T03:08:01.213Z,23.09
2022-08-05T03:10:24.475Z,23.08
2022-08-05T03:12:54.186Z,23.05
2022-08-05T03:15:23.641Z,23.04
2022-08-05T03:17:55.489Z,23.03
2022-08-05T03:20:24.436Z,23.02
2022-08-05T03:22:52.725Z,22.99
2022-08-05T03:25:33.445Z,22.96
2022-08-05T03:28:10.850Z,22.93
2022-08-05T03:30:41.277Z,22.91
2022-08-05T03:33:09.594Z,22.89
2022-08-05T03:35:41.012Z,22.88
2022-08-05T03:38:11.728Z,22.89
2022-08-05T03:40:48.465Z,22.88
2022-08-05T03:44:08.731Z,22.87
2022-08-05T03:46:04.505Z,22.88
2022-08-05T03:48:35.203Z,22.89
2022-08-05T03:52:37.822Z,22.88
2022-08-05T03:55:50.264Z,22.88
2022-08-05T03:56:47.079Z,22.89
2022-08-05T03:59:20.721Z,22.90
2022-08-05T04:01:49.979Z,22.92
2022-08-05T04:04:21.136Z,22.95
2022-08-05T04:06:51.305Z,22.99
2022-08-05T04:09:25.841Z,23.01
2022-08-05T04:11:56.428Z,23.02
2022-08-05T04:14:30.405Z,23.04
2022-08-05T04:16:59.811Z,23.07
2022-08-05T04:19:28.687Z,23.13
2022-08-05T04:22:09.301Z,23.17
2022-08-05T04:24:44.463Z,23.22
2022-08-05T04:27:19.468Z,23.28
2022-08-05T04:30:07.985Z,23.33
2022-08-05T04:32:36.456Z,23.34
2022-08-05T04:35:05.066Z,23.37
2022-08-05T04:38:01.647Z,23.45
2022-08-05T04:40:20.355Z,23.56
2022-08-05T04:42:47.474Z,23.65
2022-08-05T04:45:31.165Z,23.74
2022-08-05T04:48:16.586Z,23.78
2022-08-05T04:51:02.773Z,23.81
2022-08-05T04:53:38.921Z,23.86
2022-08-05T04:56:32.912Z,23.91
2022-08-05T04:58:56.457Z,23.99
2022-08-05T05:02:05.971Z,24.02
2022-08-05T05:04:11.122Z,24.05
2022-08-05T05:06:44.471Z,24.08
2022-08-05T05:09:14.306Z,24.11
2022-08-05T05:11:55.422Z,24.21
2022-08-05T05:14:31.469Z,24.26
2022-08-05T05:17:03.378Z,24.32
2022-08-05T05:19:36.839Z,24.39
2022-08-05T05:22:22.718Z,24.39
2022-08-05T05:24:57.874Z,24.44
2022-08-05T05:27:45.250Z,24.46
2022-08-05T05:30:29.316Z,24.51
2022-08-05T05:33:00.840Z,24.49
2022-08-05T05:35:34.418Z,24.54
2022-08-05T05:38:09.254Z,24.58
2022-08-05T05:40:48.291Z,24.53
2022-08-05T05:43:27.516Z,24.52
2022-08-05T05:46:12.265Z,24.39
2022-08-05T05:48:43.926Z,24.43
2022-08-05T05:51:15.726Z,24.42
2022-08-05T05:53:54.080Z,24.55
2022-08-05T05:56:32.240Z,24.66
2022-08-05T05:59:06.741Z,24.70
2022-08-05T06:01:37.406Z,24.69
2022-08-05T06:04:12.196Z,24.66
2022-08-05T06:06:47.798Z,24.59
2022-08-05T06:09:26.694Z,24.61
2022-08-05T06:12:03.970Z,24.74
2022-08-05T06:14:31.503Z,24.84
2022-08-05T06:16:59.022Z,24.89
2022-08-05T06:19:34.447Z,24.88
2022-08-05T06:22:07.228Z,24.90
2022-08-05T06:24:35.336Z,24.83
2022-08-05T06:27:03.900Z,24.59
2022-08-05T06:29:46.447Z,24.75
2022-08-05T06:32:25.292Z,24.61
2022-08-05T06:34:59.278Z,24.76
2022-08-05T06:37:52.347Z,24.79
2022-08-05T06:40:18.477Z,24.81
2022-08-05T06:42:52.273Z,24.84
2022-08-05T06:45:44.466Z,25.09
2022-08-05T06:48:36.741Z,25.32
2022-08-05T06:50:56.004Z,25.76
2022-08-05T06:53:28.438Z,26.10
2022-08-05T06:56:00.138Z,26.01
2022-08-05T06:58:35.437Z,26.23
2022-08-05T07:01:05.766Z,26.38
2022-08-05T07:03:33.876Z,26.41
2022-08-05T07:06:05.626Z,26.33
2022-08-05T07:08:47.598Z,26.48
2022-08-05T07:11:16.048Z,26.61
2022-08-05T07:14:02.584Z,26.64
2022-08-05T07:18:00.012Z,26.65
2022-08-05T07:22:28.373Z,26.75
2022-08-05T07:25:09.476Z,26.44
2022-08-05T07:27:58.558Z,26.54
2022-08-05T07:30:32.398Z,26.68
2022-08-05T07:33:05.104Z,26.68
2022-08-05T07:36:01.749Z,26.55
2022-08-05T07:38:34.513Z,26.60
2022-08-05T07:42:06.763Z,26.68
2022-08-05T07:43:56.390Z,26.54
2022-08-05T07:46:28.514Z,26.36
2022-08-05T07:49:02.656Z,26.43
2022-08-05T07:51:36.237Z,26.43
2022-08-05T07:54:08.493Z,26.26
2022-08-05T07:56:59.865Z,26.19
2022-08-05T07:59:38.653Z,26.12
2022-08-05T08:02:15.641Z,26.02
2022-08-05T08:04:47.311Z,25.98
2022-08-05T08:07:15.046Z,25.93
2022-08-05T08:09:43.176Z,25.86
2022-08-05T08:12:27.454Z,25.75
2022-08-05T08:14:57.789Z,25.70
2022-08-05T08:17:30.435Z,25.70
2022-08-05T08:20:42.878Z,25.72
2022-08-05T08:22:50.962Z,25.56
2022-08-05T08:25:27.126Z,25.72
2022-08-05T08:28:05.444Z,25.95
2022-08-05T08:30:48.045Z,26.13
2022-08-05T08:33:17.545Z,26.12
2022-08-05T08:35:52.937Z,26.08
2022-08-05T08:38:35.262Z,25.96
2022-08-05T08:41:06.921Z,25.88
2022-08-05T08:45:19.194Z,25.88
2022-08-05T08:46:24.287Z,25.69
2022-08-05T08:49:07.886Z,25.62
2022-08-05T08:52:03.855Z,25.63
2022-08-05T08:54:27.906Z,25.61
2022-08-05T08:56:56.578Z,25.57
2022-08-05T08:59:27.571Z,25.53
2022-08-05T09:01:57.300Z,25.51
2022-08-05T09:04:30.178Z,25.48
2022-08-05T09:06:58.455Z,25.47
2022-08-05T09:09:34.746Z,25.51
2022-08-05T09:12:14.424Z,25.59
2022-08-05T09:14:59.092Z,25.42
2022-08-05T09:17:42.442Z,25.54
2022-08-05T09:20:11.621Z,25.48
2022-08-05T09:23:07.913Z,25.52
2022-08-05T09:26:03.367Z,25.70
2022-08-05T09:28:32.044Z,25.94
2022-08-05T09:31:22.277Z,26.21
2022-08-05T09:34:00.996Z,26.43
2022-08-05T09:36:54.167Z,26.40
2022-08-05T09:39:41.470Z,26.45
2022-08-05T09:42:17.248Z,26.51
2022-08-05T09:44:52.667Z,26.39
2022-08-05T09:47:35.181Z,26.31
2022-08-05T09:50:18.241Z,26.05
2022-08-05T09:53:01.792Z,25.91
2022-08-05T09:55:57.088Z,25.83
2022-08-05T09:58:23.903Z,25.69
2022-08-05T10:01:13.513Z,25.62
2022-08-05T10:04:00.283Z,25.54
2022-08-05T10:06:28.143Z,25.50
2022-08-05T10:08:56.254Z,25.47
2022-08-05T10:11:23.954Z,25.52
2022-08-05T10:13:58.513Z,25.50
2022-08-05T10:16:37.949Z,25.54
2022-08-05T10:19:13.610Z,25.58
2022-08-05T10:21:41.180Z,25.61
2022-08-05T10:24:13.153Z,25.71
2022-08-05T10:26:51.244Z,25.78
2022-08-05T10:29:24.114Z,25.84
2022-08-05T10:32:53.841Z,25.83
2022-08-05T10:35:00.568Z,25.82
2022-08-05T10:37:40.047Z,25.69
2022-08-05T10:40:57.783Z,25.50
2022-08-05T10:43:45.476Z,25.37
2022-08-05T10:46:14.468Z,25.23
2022-08-05T10:48:56.501Z,25.27
2022-08-05T10:51:28.969Z,25.33
2022-08-05T10:54:23.120Z,25.46
2022-08-05T10:56:56.498Z,25.56
2022-08-05T11:00:03.710Z,25.60
2022-08-05T11:02:37.490Z,25.32
2022-08-05T11:05:10.261Z,25.23
2022-08-05T11:08:22.162Z,25.49
2022-08-05T11:11:00.941Z,25.72
2022-08-05T11:13:57.892Z,25.97
2022-08-05T11:16:33.858Z,26.24
2022-08-05T11:20:16.878Z,26.58
2022-08-05T11:22:39.859Z,26.89
2022-08-05T11:26:04.282Z,27.45
2022-08-05T11:28:25.812Z,27.81
2022-08-05T11:31:01.476Z,28.04
2022-08-05T11:33:47.896Z,27.98
2022-08-05T11:36:33.923Z,27.98
2022-08-05T11:39:01.986Z,28.51
2022-08-05T11:41:56.547Z,29.05
2022-08-05T11:44:40.420Z,29.49
2022-08-05T11:47:11.044Z,29.30
2022-08-05T11:49:43.019Z,29.44
2022-08-05T11:52:11.391Z,29.56
2022-08-05T11:54:40.464Z,30.11
2022-08-05T11:57:24.785Z,30.59
2022-08-05T11:59:53.269Z,30.87
2022-08-05T12:02:31.721Z,30.98
2022-08-05T12:05:01.450Z,30.33
2022-08-05T12:08:08.263Z,30.27
2022-08-05T12:10:43.691Z,30.60
2022-08-05T12:13:16.515Z,30.61
2022-08-05T12:15:49.788Z,30.83
2022-08-05T12:18:18.981Z,30.93
2022-08-05T12:20:47.936Z,30.99
2022-08-05T12:23:16.507Z,31.21
2022-08-05T12:25:56.778Z,31.52
2022-08-05T12:28:34.252Z,31.63
2022-08-05T12:31:02.219Z,32.00
2022-08-05T12:33:36.554Z,32.26
2022-08-05T12:36:08.627Z,32.27
2022-08-05T12:38:41.121Z,32.39
2022-08-05T12:41:17.476Z,32.74
2022-08-05T12:43:55.488Z,32.17
2022-08-05T12:46:29.562Z,32.44
2022-08-05T12:49:14.559Z,32.33
2022-08-05T12:52:12.982Z,32.48
2022-08-05T12:54:33.185Z,32.47
2022-08-05T12:57:03.789Z,32.54
2022-08-05T13:00:08.481Z,32.75
2022-08-05T13:02:30.355Z,33.20
2022-08-05T13:04:58.719Z,32.70
2022-08-05T13:07:55.930Z,32.86
2022-08-05T13:10:15.060Z,32.42
2022-08-05T13:12:51.137Z,31.93
2022-08-05T13:15:42.203Z,30.70
2022-08-05T13:18:21.276Z,30.51
2022-08-05T13:20:51.167Z,29.98
2022-08-05T13:23:22.830Z,30.12
2022-08-05T13:25:59.435Z,29.82
2022-08-05T13:28:28.451Z,30.25
2022-08-05T13:30:57.079Z,30.60
2022-08-05T13:34:22.288Z,31.02
2022-08-05T13:36:14.583Z,30.84
2022-08-05T13:38:42.777Z,31.11
2022-08-05T13:41:11.490Z,31.66
2022-08-05T13:43:45.512Z,31.44
2022-08-05T13:46:44.027Z,31.99
2022-08-05T13:49:12.642Z,32.09
2022-08-05T13:51:46.729Z,31.92
2022-08-05T13:54:16.071Z,31.16
2022-08-05T13:56:45.093Z,30.28
2022-08-05T13:59:20.277Z,29.99
2022-08-05T14:01:58.090Z,29.86
2022-08-05T14:04:56.078Z,29.59
2022-08-05T14:08:03.040Z,29.84
2022-08-05T14:10:30.823Z,30.10
2022-08-05T14:12:58.862Z,29.82
2022-08-05T14:16:07.404Z,30.46
2022-08-05T14:18:18.444Z,30.72
2022-08-05T14:20:49.013Z,31.01
2022-08-05T14:23:25.237Z,31.54
2022-08-05T14:25:58.967Z,31.09
2022-08-05T14:28:28.202Z,31.25
2022-08-05T14:30:56.604Z,31.88
2022-08-05T14:33:24.156Z,31.89
2022-08-05T14:35:54.044Z,31.29
2022-08-05T14:38:32.405Z,30.70
2022-08-05T14:41:03.593Z,30.19
2022-08-05T14:43:59.371Z,29.91
2022-08-05T14:46:28.015Z,29.63
2022-08-05T14:49:06.608Z,29.53
2022-08-05T14:51:42.641Z,29.24
2022-08-05T14:54:28.638Z,28.99
2022-08-05T14:56:57.555Z,28.77
2022-08-05T14:59:24.990Z,28.62
2022-08-05T15:01:57.644Z,28.34
2022-08-05T15:04:27.443Z,28.09
2022-08-05T15:06:56.433Z,27.92
2022-08-05T15:09:51.530Z,27.83
2022-08-05T15:12:11.588Z,27.80
2022-08-05T15:14:50.494Z,27.65
2022-08-05T15:17:46.398Z,27.45
2022-08-05T15:20:15.630Z,27.17
2022-08-05T15:22:45.923Z,26.84
2022-08-05T15:25:23.461Z,26.69
2022-08-05T15:28:07.337Z,26.61
2022-08-05T15:30:36.722Z,26.43
2022-08-05T15:33:04.507Z,26.37
2022-08-05T15:35:36.107Z,26.35
2022-08-05T15:38:33.631Z,26.25
2022-08-05T15:41:04.502Z,26.18
2022-08-05T15:43:45.912Z,26.14
2022-08-05T15:46:14.228Z,26.08
2022-08-05T15:48:52.658Z,26.04
2022-08-05T15:52:04.228Z,25.80
2022-08-05T15:54:16.733Z,25.84
2022-08-05T15:56:43.931Z,25.74
2022-08-05T15:59:21.954Z,25.66
2022-08-05T16:01:52.914Z,25.65
2022-08-05T16:04:25.673Z,25.62
2022-08-05T16:06:55.696Z,25.63
2022-08-05T16:09:24.009Z,25.53
2022-08-05T16:11:53.170Z,25.43
2022-08-05T16:14:22.379Z,25.30
2022-08-05T16:16:50.100Z,25.23
2022-08-05T16:19:25.829Z,25.20
2022-08-05T16:22:05.245Z,25.45
2022-08-05T16:24:41.454Z,26.86
2022-08-05T16:27:18.668Z,27.63
2022-08-05T16:29:50.291Z,27.31
2022-08-05T16:32:28.537Z,26.70
2022-08-05T16:34:57.556Z,26.23
2022-08-05T16:38:02.446Z,25.97
2022-08-05T16:40:26.660Z,25.61
2022-08-05T16:42:56.779Z,25.38
2022-08-05T16:46:06.487Z,25.09
2022-08-05T16:48:10.969Z,25.06
2022-08-05T16:50:53.244Z,24.73
2022-08-05T16:53:23.350Z,24.65
2022-08-05T16:55:59.774Z,24.35
2022-08-05T16:58:26.876Z,24.41
2022-08-05T17:00:54.235Z,24.62
2022-08-05T17:03:22.179Z,24.80
2022-08-05T17:05:53.909Z,24.88
2022-08-05T17:08:35.886Z,24.78
2022-08-05T17:11:03.812Z,24.73
2022-08-05T17:13:37.382Z,24.42
2022-08-05T17:16:29.770Z,23.97
2022-08-05T17:18:55.808Z,23.25
2022-08-05T17:21:23.767Z,23.09
2022-08-05T17:24:03.099Z,23.00
2022-08-05T17:26:33.309Z,22.72
2022-08-05T17:29:00.396Z,22.47
2022-08-05T17:31:41.491Z,22.20
2022-08-05T17:34:21.603Z,21.84
2022-08-05T17:37:00.159Z,21.66
2022-08-05T17:39:34.607Z,21.54
2022-08-05T17:42:19.658Z,21.47
2022-08-05T17:44:51.417Z,21.50
2022-08-05T17:47:22.138Z,21.52
2022-08-05T17:49:59.715Z,21.32
2022-08-05T17:52:32.680Z,21.21
2022-08-05T17:55:00.625Z,21.12
2022-08-05T17:57:30.213Z,20.85
2022-08-05T18:00:03.315Z,20.66
2022-08-05T18:02:32.647Z,20.64
2022-08-05T18:05:02.876Z,20.66
2022-08-05T18:07:41.909Z,20.61
2022-08-05T18:10:11.381Z,20.57
2022-08-05T18:12:39.317Z,20.54
2022-08-05T18:15:06.992Z,20.52
2022-08-05T18:17:59.678Z,20.40
2022-08-05T18:20:29.267Z,20.33
2022-08-05T18:23:09.456Z,20.24
2022-08-05T18:25:44.954Z,20.21
2022-08-05T18:28:17.525Z,20.22
2022-08-05T18:30:45.512Z,20.24
2022-08-05T18:33:22.999Z,20.21
2022-08-05T18:36:00.981Z,20.17
2022-08-05T18:38:31.226Z,20.01
2022-08-05T18:41:53.860Z,20.01
2022-08-05T18:43:48.402Z,20.02
2022-08-05T18:46:19.779Z,19.91
2022-08-05T18:48:52.257Z,19.86
2022-08-05T18:52:04.543Z,19.75
2022-08-05T18:54:26.478Z,19.72
2022-08-05T18:56:57.216Z,19.70
2022-08-05T18:59:43.058Z,19.59
2022-08-05T19:02:26.980Z,19.49
2022-08-05T19:05:02.914Z,19.45
2022-08-05T19:07:45.861Z,19.41
2022-08-05T19:10:14.972Z,19.40
2022-08-05T19:12:43.103Z,19.36
2022-08-05T19:15:25.251Z,19.33
2022-08-05T19:18:08.185Z,19.22
2022-08-05T19:20:41.149Z,19.16
2022-08-05T19:24:04.350Z,19.14
2022-08-05T19:26:01.912Z,19.05
2022-08-05T19:28:30.928Z,18.96
2022-08-05T19:30:58.094Z,18.91
2022-08-05T19:33:35.961Z,18.87
2022-08-05T19:36:07.141Z,18.83
2022-08-05T19:38:36.339Z,18.78
2022-08-05T19:41:06.777Z,18.77
2022-08-05T19:44:05.862Z,18.65
2022-08-05T19:46:29.754Z,18.64
2022-08-05T19:49:03.219Z,18.63
2022-08-05T19:52:09.285Z,18.60
2022-08-05T19:54:21.708Z,18.58
2022-08-05T19:56:55.767Z,18.58
2022-08-05T19:59:55.785Z,18.56
2022-08-05T20:02:10.203Z,18.59
2022-08-05T20:04:38.114Z,18.50
2022-08-05T20:07:13.437Z,18.46
2022-08-05T20:09:54.395Z,18.43
2022-08-05T20:12:24.925Z,18.39
2022-08-05T20:14:53.137Z,18.31
2022-08-05T20:17:23.711Z,18.30
2022-08-05T20:19:56.824Z,18.22
2022-08-05T20:22:26.746Z,18.18
2022-08-05T20:24:55.830Z,18.14
2022-08-05T20:27:26.766Z,18.15
2022-08-05T20:29:58.541Z,18.15
2022-08-05T20:32:27.083Z,18.19
2022-08-05T20:34:54.909Z,18.14
2022-08-05T20:38:05.499Z,18.12
2022-08-05T20:40:09.910Z,18.08
2022-08-05T20:42:37.112Z,18.09
2022-08-05T20:45:05.255Z,18.04
2022-08-05T20:47:33.421Z,18.05
2022-08-05T20:50:02.108Z,18.01
2022-08-05T20:52:29.969Z,17.95
2022-08-05T20:55:15.788Z,17.91
2022-08-05T20:57:45.374Z,17.84
2022-08-05T21:00:41.502Z,17.87
2022-08-05T21:03:07.440Z,17.88
2022-08-05T21:05:48.279Z,17.89
2022-08-05T21:08:33.160Z,17.82
2022-08-05T21:11:11.852Z,17.75
2022-08-05T21:13:47.945Z,17.75
2022-08-05T21:16:29.833Z,17.75
2022-08-05T21:18:59.949Z,17.74
2022-08-05T21:21:39.145Z,17.71
2022-08-05T21:24:15.421Z,17.69
2022-08-05T21:26:50.504Z,17.70
2022-08-05T21:29:23.463Z,17.62
2022-08-05T21:31:54.534Z,17.60
2022-08-05T21:34:23.130Z,17.58
2022-08-05T21:36:51.634Z,17.60
2022-08-05T21:39:26.971Z,17.54
2022-08-05T21:42:01.483Z,17.52
2022-08-05T21:44:32.452Z,17.48
2022-08-05T21:47:00.155Z,17.45
2022-08-05T21:49:58.585Z,17.41
2022-08-05T21:52:22.299Z,17.41
2022-08-05T21:54:56.799Z,17.35
2022-08-05T21:57:32.579Z,17.37
2022-08-05T22:00:06.438Z,17.39
2022-08-05T22:02:34.687Z,17.32
2022-08-05T22:05:01.836Z,17.30
2022-08-05T22:07:40.329Z,17.28
2022-08-05T22:10:25.593Z,17.27
2022-08-05T22:12:58.912Z,17.23
2022-08-05T22:16:02.729Z,17.18
2022-08-05T22:18:14.457Z,17.19
2022-08-05T22:20:42.932Z,17.21
2022-08-05T22:24:02.867Z,17.16
2022-08-05T22:26:35.533Z,17.14
2022-08-05T22:29:02.828Z,17.07
2022-08-05T22:31:30.869Z,17.03
2022-08-05T22:34:20.123Z,17.00
2022-08-05T22:36:55.932Z,16.94
2022-08-05T22:39:23.178Z,16.96
2022-08-05T22:42:10.353Z,16.94
2022-08-05T22:44:37.814Z,16.90
2022-08-05T22:47:05.827Z,16.89
2022-08-05T22:50:20.986Z,16.85
2022-08-05T22:52:30.341Z,16.78
2022-08-05T22:55:02.306Z,16.78
2022-08-05T22:57:36.323Z,16.79
2022-08-05T23:00:08.950Z,16.74
2022-08-05T23:02:37.612Z,16.66
2022-08-05T23:05:14.801Z,16.58
2022-08-05T23:07:45.377Z,16.59
2022-08-05T23:10:16.404Z,16.54
2022-08-05T23:12:54.454Z,16.46
2022-08-05T23:15:29.207Z,16.44
2022-08-05T23:18:00.609Z,16.37
2022-08-05T23:20:31.419Z,16.35
2022-08-05T23:22:59.769Z,16.28
2022-08-05T23:25:51.217Z,16.24
2022-08-05T23:28:15.976Z,16.21
2022-08-05T23:30:53.831Z,16.20
2022-08-05T23:33:26.067Z,16.16
2022-08-05T23:36:10.073Z,16.05
2022-08-05T23:38:38.111Z,15.99
2022-08-05T23:41:05.325Z,16.00
2022-08-05T23:44:03.739Z,15.95
2022-08-05T23:46:22.124Z,15.90
2022-08-05T23:49:00.568Z,15.89
2022-08-05T23:51:52.449Z,15.83
2022-08-05T23:54:25.516Z,15.74
2022-08-05T23:57:03.635Z,15.75
